sensor_id;sensor_type;location;lat;lon;timestamp;P1;durP1;ratioP1;P2;durP2;ratioP2
5807;SDS011;2930;42.678;23.312;2023-02-22T00:00:49;6.00;;;4.03;;
5807;SDS011;2930;42.678;23.312;2023-02-22T00:05:48;4.50;;;3.80;;
5807;SDS011;2930;42.678;23.312;2023-02-22T00:08:19;5.77;;;3.73;;
5807;SDS011;2930;42.678;23.312;2023-02-22T00:10:46;4.43;;;3.93;;
5807;SDS011;2930;42.678;23.312;2023-02-22T00:13:16;7.00;;;4.63;;
5807;SDS011;2930;42.678;23.312;2023-02-22T00:15:43;5.33;;;4.07;;
5807;SDS011;2930;42.678;23.312;2023-02-22T00:18:13;5.10;;;3.27;;
5807;SDS011;2930;42.678;23.312;2023-02-22T00:20:40;7.33;;;3.77;;
5807;SDS011;2930;42.678;23.312;2023-02-22T00:23:07;5.97;;;3.97;;
5807;SDS011;2930;42.678;23.312;2023-02-22T00:25:36;3.83;;;2.63;;
5807;SDS011;2930;42.678;23.312;2023-02-22T00:28:02;3.87;;;3.57;;
5807;SDS011;2930;42.678;23.312;2023-02-22T00:30:29;3.20;;;2.87;;
5807;SDS011;2930;42.678;23.312;2023-02-22T00:32:56;4.80;;;3.07;;
5807;SDS011;2930;42.678;23.312;2023-02-22T00:35:23;4.77;;;3.07;;
5807;SDS011;2930;42.678;23.312;2023-02-22T00:37:51;5.70;;;3.23;;
5807;SDS011;2930;42.678;23.312;2023-02-22T00:40:20;3.83;;;2.53;;
5807;SDS011;2930;42.678;23.312;2023-02-22T00:42:47;4.03;;;3.10;;
5807;SDS011;2930;42.678;23.312;2023-02-22T00:45:17;2.50;;;2.30;;
5807;SDS011;2930;42.678;23.312;2023-02-22T00:47:47;3.73;;;2.77;;
5807;SDS011;2930;42.678;23.312;2023-02-22T00:50:13;2.67;;;2.47;;
5807;SDS011;2930;42.678;23.312;2023-02-22T00:52:40;6.97;;;3.43;;
5807;SDS011;2930;42.678;23.312;2023-02-22T00:55:07;8.93;;;3.70;;
5807;SDS011;2930;42.678;23.312;2023-02-22T00:57:34;2.60;;;2.30;;
5807;SDS011;2930;42.678;23.312;2023-02-22T01:00:01;2.87;;;2.57;;
5807;SDS011;2930;42.678;23.312;2023-02-22T01:02:36;5.13;;;2.90;;
5807;SDS011;2930;42.678;23.312;2023-02-22T01:05:06;3.87;;;2.73;;
5807;SDS011;2930;42.678;23.312;2023-02-22T01:07:32;3.07;;;2.87;;
5807;SDS011;2930;42.678;23.312;2023-02-22T01:09:59;3.53;;;3.00;;
5807;SDS011;2930;42.678;23.312;2023-02-22T01:12:26;4.13;;;3.00;;
5807;SDS011;2930;42.678;23.312;2023-02-22T01:14:53;3.33;;;2.97;;
5807;SDS011;2930;42.678;23.312;2023-02-22T01:17:25;3.40;;;2.80;;
5807;SDS011;2930;42.678;23.312;2023-02-22T01:19:51;3.23;;;2.93;;
5807;SDS011;2930;42.678;23.312;2023-02-22T01:22:18;5.87;;;3.07;;
5807;SDS011;2930;42.678;23.312;2023-02-22T01:24:45;4.20;;;2.60;;
5807;SDS011;2930;42.678;23.312;2023-02-22T01:27:12;3.80;;;3.00;;
5807;SDS011;2930;42.678;23.312;2023-02-22T01:29:38;4.20;;;2.67;;
5807;SDS011;2930;42.678;23.312;2023-02-22T01:32:04;2.70;;;2.40;;
5807;SDS011;2930;42.678;23.312;2023-02-22T01:34:30;3.67;;;3.13;;
5807;SDS011;2930;42.678;23.312;2023-02-22T01:36:57;3.07;;;2.80;;
5807;SDS011;2930;42.678;23.312;2023-02-22T01:39:23;3.80;;;3.23;;
5807;SDS011;2930;42.678;23.312;2023-02-22T01:41:49;5.63;;;2.17;;
5807;SDS011;2930;42.678;23.312;2023-02-22T01:46:53;3.33;;;2.77;;
5807;SDS011;2930;42.678;23.312;2023-02-22T01:49:19;4.40;;;2.80;;
5807;SDS011;2930;42.678;23.312;2023-02-22T01:51:47;9.23;;;3.43;;
5807;SDS011;2930;42.678;23.312;2023-02-22T01:54:27;6.27;;;3.50;;
5807;SDS011;2930;42.678;23.312;2023-02-22T01:59:55;3.93;;;2.67;;
5807;SDS011;2930;42.678;23.312;2023-02-22T02:02:24;3.33;;;2.80;;
5807;SDS011;2930;42.678;23.312;2023-02-22T02:04:51;3.83;;;3.37;;
5807;SDS011;2930;42.678;23.312;2023-02-22T02:07:20;3.27;;;2.17;;
5807;SDS011;2930;42.678;23.312;2023-02-22T02:09:51;2.67;;;2.43;;
5807;SDS011;2930;42.678;23.312;2023-02-22T02:12:22;4.03;;;3.27;;
5807;SDS011;2930;42.678;23.312;2023-02-22T02:14:50;2.80;;;2.37;;
5807;SDS011;2930;42.678;23.312;2023-02-22T02:17:16;5.37;;;2.33;;
5807;SDS011;2930;42.678;23.312;2023-02-22T02:19:47;2.87;;;2.40;;
5807;SDS011;2930;42.678;23.312;2023-02-22T02:34:18;3.03;;;2.70;;
5807;SDS011;2930;42.678;23.312;2023-02-22T02:37:01;9.67;;;3.17;;
5807;SDS011;2930;42.678;23.312;2023-02-22T02:42:34;4.50;;;2.67;;
5807;SDS011;2930;42.678;23.312;2023-02-22T02:45:08;8.57;;;3.53;;
5807;SDS011;2930;42.678;23.312;2023-02-22T02:47:40;4.23;;;3.27;;
5807;SDS011;2930;42.678;23.312;2023-02-22T02:50:15;5.20;;;3.50;;
5807;SDS011;2930;42.678;23.312;2023-02-22T02:52:47;4.80;;;2.87;;
5807;SDS011;2930;42.678;23.312;2023-02-22T02:55:16;3.53;;;2.80;;
5807;SDS011;2930;42.678;23.312;2023-02-22T02:57:42;2.93;;;2.67;;
5807;SDS011;2930;42.678;23.312;2023-02-22T03:00:09;5.77;;;3.43;;
5807;SDS011;2930;42.678;23.312;2023-02-22T03:13:08;4.53;;;2.23;;
5807;SDS011;2930;42.678;23.312;2023-02-22T03:16:02;4.63;;;1.93;;
5807;SDS011;2930;42.678;23.312;2023-02-22T03:24:24;2.17;;;1.97;;
5807;SDS011;2930;42.678;23.312;2023-02-22T03:26:48;2.40;;;1.53;;
5807;SDS011;2930;42.678;23.312;2023-02-22T03:29:19;2.33;;;1.33;;
5807;SDS011;2930;42.678;23.312;2023-02-22T03:31:50;3.20;;;1.53;;
5807;SDS011;2930;42.678;23.312;2023-02-22T03:34:26;1.57;;;1.47;;
5807;SDS011;2930;42.678;23.312;2023-02-22T03:36:58;2.47;;;1.53;;
5807;SDS011;2930;42.678;23.312;2023-02-22T03:39:27;2.37;;;1.60;;
5807;SDS011;2930;42.678;23.312;2023-02-22T03:41:56;1.43;;;1.30;;
5807;SDS011;2930;42.678;23.312;2023-02-22T03:44:27;6.90;;;1.60;;
5807;SDS011;2930;42.678;23.312;2023-02-22T03:46:58;1.50;;;1.40;;
5807;SDS011;2930;42.678;23.312;2023-02-22T03:51:59;1.63;;;1.50;;
5807;SDS011;2930;42.678;23.312;2023-02-22T03:54:26;3.17;;;2.07;;
5807;SDS011;2930;42.678;23.312;2023-02-22T03:56:57;1.93;;;1.83;;
5807;SDS011;2930;42.678;23.312;2023-02-22T03:59:28;1.37;;;1.37;;
5807;SDS011;2930;42.678;23.312;2023-02-22T04:01:55;2.10;;;1.47;;
5807;SDS011;2930;42.678;23.312;2023-02-22T04:04:22;2.57;;;1.97;;
5807;SDS011;2930;42.678;23.312;2023-02-22T04:06:49;3.47;;;2.33;;
5807;SDS011;2930;42.678;23.312;2023-02-22T04:09:15;4.80;;;1.97;;
5807;SDS011;2930;42.678;23.312;2023-02-22T04:11:41;2.13;;;2.03;;
5807;SDS011;2930;42.678;23.312;2023-02-22T04:14:07;2.83;;;2.60;;
5807;SDS011;2930;42.678;23.312;2023-02-22T04:16:33;3.23;;;1.80;;
5807;SDS011;2930;42.678;23.312;2023-02-22T04:18:59;2.53;;;1.87;;
5807;SDS011;2930;42.678;23.312;2023-02-22T04:21:24;4.03;;;1.97;;
5807;SDS011;2930;42.678;23.312;2023-02-22T04:23:50;4.10;;;2.23;;
5807;SDS011;2930;42.678;23.312;2023-02-22T04:26:16;2.00;;;1.90;;
5807;SDS011;2930;42.678;23.312;2023-02-22T04:28:41;2.43;;;2.23;;
5807;SDS011;2930;42.678;23.312;2023-02-22T04:31:07;2.10;;;1.90;;
5807;SDS011;2930;42.678;23.312;2023-02-22T04:33:33;4.30;;;2.37;;
5807;SDS011;2930;42.678;23.312;2023-02-22T04:35:59;3.20;;;2.40;;
5807;SDS011;2930;42.678;23.312;2023-02-22T04:38:25;5.73;;;3.37;;
5807;SDS011;2930;42.678;23.312;2023-02-22T04:40:51;4.53;;;2.50;;
5807;SDS011;2930;42.678;23.312;2023-02-22T04:43:18;3.20;;;2.90;;
5807;SDS011;2930;42.678;23.312;2023-02-22T04:45:43;6.17;;;3.30;;
5807;SDS011;2930;42.678;23.312;2023-02-22T04:48:09;5.50;;;3.27;;
5807;SDS011;2930;42.678;23.312;2023-02-22T04:50:35;10.70;;;3.40;;
5807;SDS011;2930;42.678;23.312;2023-02-22T04:53:01;6.97;;;3.73;;
5807;SDS011;2930;42.678;23.312;2023-02-22T04:55:27;3.63;;;2.73;;
5807;SDS011;2930;42.678;23.312;2023-02-22T04:57:53;4.93;;;3.10;;
5807;SDS011;2930;42.678;23.312;2023-02-22T05:00:19;4.17;;;3.47;;
5807;SDS011;2930;42.678;23.312;2023-02-22T05:02:46;4.53;;;3.37;;
5807;SDS011;2930;42.678;23.312;2023-02-22T05:05:13;5.70;;;3.00;;
5807;SDS011;2930;42.678;23.312;2023-02-22T05:07:40;3.80;;;3.23;;
5807;SDS011;2930;42.678;23.312;2023-02-22T05:10:06;6.67;;;3.97;;
5807;SDS011;2930;42.678;23.312;2023-02-22T05:12:32;7.70;;;2.80;;
5807;SDS011;2930;42.678;23.312;2023-02-22T05:14:59;4.50;;;3.33;;
5807;SDS011;2930;42.678;23.312;2023-02-22T05:17:25;3.97;;;3.23;;
5807;SDS011;2930;42.678;23.312;2023-02-22T05:19:51;3.67;;;3.03;;
5807;SDS011;2930;42.678;23.312;2023-02-22T05:22:17;3.70;;;2.83;;
5807;SDS011;2930;42.678;23.312;2023-02-22T05:24:42;3.67;;;3.30;;
5807;SDS011;2930;42.678;23.312;2023-02-22T05:27:08;5.97;;;3.93;;
5807;SDS011;2930;42.678;23.312;2023-02-22T05:29:34;5.60;;;4.33;;
5807;SDS011;2930;42.678;23.312;2023-02-22T05:32:02;6.37;;;4.30;;
5807;SDS011;2930;42.678;23.312;2023-02-22T05:34:28;6.33;;;3.73;;
5807;SDS011;2930;42.678;23.312;2023-02-22T05:36:54;6.67;;;3.70;;
5807;SDS011;2930;42.678;23.312;2023-02-22T05:39:20;5.20;;;3.80;;
5807;SDS011;2930;42.678;23.312;2023-02-22T05:41:46;4.23;;;3.53;;
5807;SDS011;2930;42.678;23.312;2023-02-22T05:44:12;8.60;;;3.53;;
5807;SDS011;2930;42.678;23.312;2023-02-22T05:46:37;3.20;;;2.93;;
5807;SDS011;2930;42.678;23.312;2023-02-22T05:49:03;3.53;;;3.13;;
5807;SDS011;2930;42.678;23.312;2023-02-22T05:51:29;5.53;;;3.97;;
5807;SDS011;2930;42.678;23.312;2023-02-22T05:53:55;4.97;;;3.87;;
5807;SDS011;2930;42.678;23.312;2023-02-22T05:56:24;4.07;;;3.53;;
5807;SDS011;2930;42.678;23.312;2023-02-22T05:58:51;11.70;;;3.60;;
5807;SDS011;2930;42.678;23.312;2023-02-22T06:01:17;6.47;;;3.73;;
5807;SDS011;2930;42.678;23.312;2023-02-22T06:03:44;9.83;;;3.47;;
5807;SDS011;2930;42.678;23.312;2023-02-22T06:06:11;8.70;;;3.73;;
5807;SDS011;2930;42.678;23.312;2023-02-22T06:08:37;6.57;;;3.57;;
5807;SDS011;2930;42.678;23.312;2023-02-22T06:11:03;7.73;;;3.33;;
5807;SDS011;2930;42.678;23.312;2023-02-22T06:13:28;6.87;;;4.07;;
5807;SDS011;2930;42.678;23.312;2023-02-22T06:15:54;5.07;;;3.27;;
5807;SDS011;2930;42.678;23.312;2023-02-22T06:18:20;9.43;;;4.20;;
5807;SDS011;2930;42.678;23.312;2023-02-22T06:20:45;11.27;;;3.40;;
5807;SDS011;2930;42.678;23.312;2023-02-22T06:23:11;3.97;;;3.63;;
5807;SDS011;2930;42.678;23.312;2023-02-22T06:25:37;3.40;;;3.10;;
5807;SDS011;2930;42.678;23.312;2023-02-22T06:28:02;8.90;;;4.03;;
5807;SDS011;2930;42.678;23.312;2023-02-22T06:30:29;6.83;;;4.20;;
5807;SDS011;2930;42.678;23.312;2023-02-22T06:32:54;3.10;;;2.63;;
5807;SDS011;2930;42.678;23.312;2023-02-22T06:35:20;7.37;;;3.37;;
5807;SDS011;2930;42.678;23.312;2023-02-22T06:37:46;5.53;;;3.27;;
5807;SDS011;2930;42.678;23.312;2023-02-22T06:40:12;7.73;;;3.70;;
5807;SDS011;2930;42.678;23.312;2023-02-22T06:42:39;4.93;;;2.43;;
5807;SDS011;2930;42.678;23.312;2023-02-22T06:45:05;3.00;;;2.73;;
5807;SDS011;2930;42.678;23.312;2023-02-22T06:47:31;4.47;;;3.10;;
5807;SDS011;2930;42.678;23.312;2023-02-22T06:49:57;8.07;;;3.17;;
5807;SDS011;2930;42.678;23.312;2023-02-22T06:52:24;9.93;;;3.00;;
5807;SDS011;2930;42.678;23.312;2023-02-22T06:54:51;2.87;;;2.03;;
5807;SDS011;2930;42.678;23.312;2023-02-22T06:57:16;3.20;;;2.90;;
5807;SDS011;2930;42.678;23.312;2023-02-22T06:59:42;4.37;;;3.13;;
5807;SDS011;2930;42.678;23.312;2023-02-22T07:02:12;4.83;;;3.00;;
5807;SDS011;2930;42.678;23.312;2023-02-22T07:04:38;9.00;;;3.37;;
5807;SDS011;2930;42.678;23.312;2023-02-22T07:07:04;5.57;;;3.87;;
5807;SDS011;2930;42.678;23.312;2023-02-22T07:09:30;5.00;;;4.00;;
5807;SDS011;2930;42.678;23.312;2023-02-22T07:11:56;5.93;;;3.43;;
5807;SDS011;2930;42.678;23.312;2023-02-22T07:14:22;3.40;;;3.10;;
5807;SDS011;2930;42.678;23.312;2023-02-22T07:16:48;3.43;;;3.23;;
5807;SDS011;2930;42.678;23.312;2023-02-22T07:19:13;3.07;;;2.83;;
5807;SDS011;2930;42.678;23.312;2023-02-22T07:21:39;9.67;;;3.17;;
5807;SDS011;2930;42.678;23.312;2023-02-22T07:24:05;4.37;;;2.60;;
5807;SDS011;2930;42.678;23.312;2023-02-22T07:26:31;6.53;;;3.33;;
5807;SDS011;2930;42.678;23.312;2023-02-22T07:29:04;4.47;;;3.87;;
5807;SDS011;2930;42.678;23.312;2023-02-22T07:31:33;3.10;;;2.80;;
5807;SDS011;2930;42.678;23.312;2023-02-22T07:34:02;5.70;;;3.37;;
5807;SDS011;2930;42.678;23.312;2023-02-22T07:36:28;4.07;;;3.23;;
5807;SDS011;2930;42.678;23.312;2023-02-22T07:38:53;9.43;;;3.20;;
5807;SDS011;2930;42.678;23.312;2023-02-22T07:41:19;5.78;;;3.80;;
5807;SDS011;2930;42.678;23.312;2023-02-22T07:43:46;5.05;;;4.43;;
5807;SDS011;2930;42.678;23.312;2023-02-22T07:46:12;7.28;;;4.28;;
5807;SDS011;2930;42.678;23.312;2023-02-22T07:48:38;7.32;;;4.30;;
5807;SDS011;2930;42.678;23.312;2023-02-22T07:51:04;5.25;;;4.35;;
5807;SDS011;2930;42.678;23.312;2023-02-22T07:53:30;6.35;;;4.28;;
5807;SDS011;2930;42.678;23.312;2023-02-22T07:55:58;9.57;;;5.35;;
5807;SDS011;2930;42.678;23.312;2023-02-22T07:58:26;6.00;;;5.43;;
5807;SDS011;2930;42.678;23.312;2023-02-22T08:00:53;5.88;;;5.22;;
5807;SDS011;2930;42.678;23.312;2023-02-22T08:03:21;6.82;;;5.10;;
5807;SDS011;2930;42.678;23.312;2023-02-22T08:05:50;7.20;;;5.10;;
5807;SDS011;2930;42.678;23.312;2023-02-22T08:08:17;6.75;;;4.82;;
5807;SDS011;2930;42.678;23.312;2023-02-22T08:10:43;6.55;;;5.72;;
5807;SDS011;2930;42.678;23.312;2023-02-22T08:13:09;8.35;;;5.40;;
5807;SDS011;2930;42.678;23.312;2023-02-22T08:15:36;13.93;;;6.05;;
5807;SDS011;2930;42.678;23.312;2023-02-22T08:18:04;9.85;;;5.68;;
5807;SDS011;2930;42.678;23.312;2023-02-22T08:20:39;6.18;;;5.57;;
5807;SDS011;2930;42.678;23.312;2023-02-22T08:23:06;7.15;;;6.30;;
5807;SDS011;2930;42.678;23.312;2023-02-22T08:25:32;8.77;;;5.78;;
5807;SDS011;2930;42.678;23.312;2023-02-22T08:28:00;9.80;;;6.28;;
5807;SDS011;2930;42.678;23.312;2023-02-22T08:30:29;7.70;;;5.05;;
5807;SDS011;2930;42.678;23.312;2023-02-22T08:32:55;5.15;;;4.72;;
5807;SDS011;2930;42.678;23.312;2023-02-22T08:35:22;5.88;;;5.38;;
5807;SDS011;2930;42.678;23.312;2023-02-22T08:37:50;6.00;;;5.43;;
5807;SDS011;2930;42.678;23.312;2023-02-22T08:42:47;7.47;;;5.75;;
5807;SDS011;2930;42.678;23.312;2023-02-22T08:45:13;10.13;;;5.88;;
5807;SDS011;2930;42.678;23.312;2023-02-22T08:47:39;8.02;;;5.68;;
5807;SDS011;2930;42.678;23.312;2023-02-22T08:50:05;6.45;;;5.85;;
5807;SDS011;2930;42.678;23.312;2023-02-22T08:52:32;7.10;;;5.40;;
5807;SDS011;2930;42.678;23.312;2023-02-22T08:54:59;5.80;;;5.30;;
5807;SDS011;2930;42.678;23.312;2023-02-22T08:57:25;5.75;;;5.25;;
5807;SDS011;2930;42.678;23.312;2023-02-22T08:59:50;5.05;;;4.65;;
5807;SDS011;2930;42.678;23.312;2023-02-22T09:02:18;5.00;;;4.18;;
5807;SDS011;2930;42.678;23.312;2023-02-22T09:04:46;3.95;;;3.08;;
5807;SDS011;2930;42.678;23.312;2023-02-22T09:07:12;5.13;;;2.35;;
5807;SDS011;2930;42.678;23.312;2023-02-22T09:09:41;3.03;;;2.78;;
5807;SDS011;2930;42.678;23.312;2023-02-22T09:12:07;3.08;;;2.83;;
5807;SDS011;2930;42.678;23.312;2023-02-22T09:14:33;2.78;;;2.42;;
5807;SDS011;2930;42.678;23.312;2023-02-22T09:16:58;4.30;;;3.08;;
5807;SDS011;2930;42.678;23.312;2023-02-22T09:19:24;4.30;;;3.85;;
5807;SDS011;2930;42.678;23.312;2023-02-22T09:21:53;3.45;;;3.25;;
5807;SDS011;2930;42.678;23.312;2023-02-22T09:24:19;5.85;;;2.85;;
5807;SDS011;2930;42.678;23.312;2023-02-22T09:26:45;3.42;;;2.80;;
5807;SDS011;2930;42.678;23.312;2023-02-22T09:29:12;3.47;;;3.17;;
5807;SDS011;2930;42.678;23.312;2023-02-22T09:31:38;3.13;;;2.85;;
5807;SDS011;2930;42.678;23.312;2023-02-22T09:34:05;2.25;;;2.00;;
5807;SDS011;2930;42.678;23.312;2023-02-22T09:36:38;1.73;;;1.73;;
5807;SDS011;2930;42.678;23.312;2023-02-22T09:39:05;2.80;;;2.60;;
5807;SDS011;2930;42.678;23.312;2023-02-22T09:41:35;2.00;;;1.90;;
5807;SDS011;2930;42.678;23.312;2023-02-22T09:46:37;4.00;;;1.45;;
5807;SDS011;2930;42.678;23.312;2023-02-22T09:56:52;1.17;;;1.17;;
5807;SDS011;2930;42.678;23.312;2023-02-22T09:59:23;1.30;;;1.30;;
5807;SDS011;2930;42.678;23.312;2023-02-22T10:01:54;1.58;;;1.48;;
5807;SDS011;2930;42.678;23.312;2023-02-22T10:04:35;1.63;;;1.63;;
5807;SDS011;2930;42.678;23.312;2023-02-22T10:09:52;1.60;;;1.10;;
5807;SDS011;2930;42.678;23.312;2023-02-22T10:12:29;3.13;;;1.10;;
5807;SDS011;2930;42.678;23.312;2023-02-22T10:23:16;6.22;;;1.02;;
5807;SDS011;2930;42.678;23.312;2023-02-22T10:28:47;1.50;;;1.40;;
5807;SDS011;2930;42.678;23.312;2023-02-22T10:31:59;1.83;;;1.45;;
5807;SDS011;2930;42.678;23.312;2023-02-22T10:34:25;1.50;;;1.40;;
5807;SDS011;2930;42.678;23.312;2023-02-22T10:36:56;1.48;;;1.48;;
5807;SDS011;2930;42.678;23.312;2023-02-22T10:39:27;1.65;;;1.50;;
5807;SDS011;2930;42.678;23.312;2023-02-22T10:42:01;3.25;;;1.25;;
5807;SDS011;2930;42.678;23.312;2023-02-22T10:44:37;1.67;;;1.58;;
5807;SDS011;2930;42.678;23.312;2023-02-22T10:47:04;1.48;;;1.35;;
5807;SDS011;2930;42.678;23.312;2023-02-22T10:49:54;1.48;;;1.38;;
5807;SDS011;2930;42.678;23.312;2023-02-22T10:52:24;3.15;;;1.65;;
5807;SDS011;2930;42.678;23.312;2023-02-22T10:54:56;1.38;;;1.27;;
5807;SDS011;2930;42.678;23.312;2023-02-22T10:57:32;1.63;;;1.52;;
5807;SDS011;2930;42.678;23.312;2023-02-22T11:00:21;1.30;;;1.30;;
5807;SDS011;2930;42.678;23.312;2023-02-22T11:02:55;1.48;;;1.40;;
5807;SDS011;2930;42.678;23.312;2023-02-22T11:07:51;1.08;;;1.08;;
5807;SDS011;2930;42.678;23.312;2023-02-22T11:10:36;4.03;;;1.30;;
5807;SDS011;2930;42.678;23.312;2023-02-22T11:13:15;5.10;;;1.80;;
5807;SDS011;2930;42.678;23.312;2023-02-22T11:15:59;0.95;;;0.95;;
5807;SDS011;2930;42.678;23.312;2023-02-22T11:18:40;1.00;;;1.00;;
5807;SDS011;2930;42.678;23.312;2023-02-22T11:21:07;1.25;;;1.20;;
5807;SDS011;2930;42.678;23.312;2023-02-22T11:23:35;1.20;;;1.20;;
5807;SDS011;2930;42.678;23.312;2023-02-22T11:26:07;1.27;;;1.27;;
5807;SDS011;2930;42.678;23.312;2023-02-22T11:28:38;1.42;;;1.33;;
5807;SDS011;2930;42.678;23.312;2023-02-22T11:31:26;1.02;;;1.02;;
5807;SDS011;2930;42.678;23.312;2023-02-22T11:33:54;1.08;;;1.08;;
5807;SDS011;2930;42.678;23.312;2023-02-22T11:38:56;1.00;;;1.00;;
5807;SDS011;2930;42.678;23.312;2023-02-22T11:41:30;0.80;;;0.80;;
5807;SDS011;2930;42.678;23.312;2023-02-22T11:46:55;1.05;;;0.90;;
5807;SDS011;2930;42.678;23.312;2023-02-22T11:49:32;2.28;;;0.82;;
5807;SDS011;2930;42.678;23.312;2023-02-22T11:57:34;0.93;;;0.93;;
5807;SDS011;2930;42.678;23.312;2023-02-22T12:00:24;1.45;;;0.80;;
5807;SDS011;2930;42.678;23.312;2023-02-22T12:08:31;0.75;;;0.75;;
5807;SDS011;2930;42.678;23.312;2023-02-22T12:11:17;0.55;;;0.52;;
5807;SDS011;2930;42.678;23.312;2023-02-22T12:21:40;0.57;;;0.57;;
5807;SDS011;2930;42.678;23.312;2023-02-22T12:24:10;1.85;;;0.70;;
5807;SDS011;2930;42.678;23.312;2023-02-22T12:26:43;1.42;;;1.00;;
5807;SDS011;2930;42.678;23.312;2023-02-22T12:29:16;0.82;;;0.63;;
5807;SDS011;2930;42.678;23.312;2023-02-22T12:31:45;0.70;;;0.70;;
5807;SDS011;2930;42.678;23.312;2023-02-22T12:36:54;0.95;;;0.95;;
5807;SDS011;2930;42.678;23.312;2023-02-22T12:42:42;0.80;;;0.80;;
5807;SDS011;2930;42.678;23.312;2023-02-22T12:45:31;1.00;;;1.00;;
5807;SDS011;2930;42.678;23.312;2023-02-22T12:59:21;0.90;;;0.90;;
5807;SDS011;2930;42.678;23.312;2023-02-22T13:01:57;0.80;;;0.80;;
5807;SDS011;2930;42.678;23.312;2023-02-22T13:04:33;0.75;;;0.75;;
5807;SDS011;2930;42.678;23.312;2023-02-22T13:12:25;0.70;;;0.70;;
5807;SDS011;2930;42.678;23.312;2023-02-22T13:15:07;0.70;;;0.70;;
5807;SDS011;2930;42.678;23.312;2023-02-22T13:26:24;1.08;;;1.08;;
5807;SDS011;2930;42.678;23.312;2023-02-22T13:42:12;1.08;;;1.08;;
5807;SDS011;2930;42.678;23.312;2023-02-22T13:44:52;0.85;;;0.85;;
5807;SDS011;2930;42.678;23.312;2023-02-22T13:50:23;1.00;;;1.00;;
5807;SDS011;2930;42.678;23.312;2023-02-22T13:52:52;1.10;;;1.10;;
5807;SDS011;2930;42.678;23.312;2023-02-22T13:55:25;1.27;;;1.02;;
5807;SDS011;2930;42.678;23.312;2023-02-22T13:58:09;1.10;;;1.10;;
5807;SDS011;2930;42.678;23.312;2023-02-22T14:00:44;1.00;;;1.00;;
5807;SDS011;2930;42.678;23.312;2023-02-22T14:03:27;1.58;;;1.20;;
5807;SDS011;2930;42.678;23.312;2023-02-22T14:06:00;1.30;;;1.30;;
5807;SDS011;2930;42.678;23.312;2023-02-22T14:13:24;2.38;;;1.35;;
5807;SDS011;2930;42.678;23.312;2023-02-22T14:18:34;1.73;;;1.73;;
5807;SDS011;2930;42.678;23.312;2023-02-22T14:31:26;1.50;;;1.50;;
5807;SDS011;2930;42.678;23.312;2023-02-22T14:34:01;1.27;;;1.27;;
5807;SDS011;2930;42.678;23.312;2023-02-22T14:36:43;1.23;;;1.13;;
5807;SDS011;2930;42.678;23.312;2023-02-22T14:42:13;1.60;;;1.50;;
5807;SDS011;2930;42.678;23.312;2023-02-22T14:47:28;1.80;;;1.70;;
5807;SDS011;2930;42.678;23.312;2023-02-22T14:50:41;1.33;;;1.33;;
5807;SDS011;2930;42.678;23.312;2023-02-22T14:56:22;1.50;;;1.50;;
5807;SDS011;2930;42.678;23.312;2023-02-22T14:59:20;1.77;;;1.77;;
5807;SDS011;2930;42.678;23.312;2023-02-22T15:01:46;2.20;;;1.50;;
5807;SDS011;2930;42.678;23.312;2023-02-22T15:04:19;1.23;;;1.23;;
5807;SDS011;2930;42.678;23.312;2023-02-22T15:06:49;1.20;;;1.10;;
5807;SDS011;2930;42.678;23.312;2023-02-22T15:09:20;1.52;;;1.52;;
5807;SDS011;2930;42.678;23.312;2023-02-22T15:11:54;3.97;;;1.42;;
5807;SDS011;2930;42.678;23.312;2023-02-22T15:14:42;1.90;;;1.80;;
5807;SDS011;2930;42.678;23.312;2023-02-22T15:19:49;1.65;;;1.58;;
5807;SDS011;2930;42.678;23.312;2023-02-22T15:22:24;4.13;;;1.70;;
5807;SDS011;2930;42.678;23.312;2023-02-22T15:24:57;4.78;;;1.88;;
5807;SDS011;2930;42.678;23.312;2023-02-22T15:27:25;1.70;;;1.60;;
5807;SDS011;2930;42.678;23.312;2023-02-22T15:29:56;2.03;;;2.03;;
5807;SDS011;2930;42.678;23.312;2023-02-22T15:32:28;3.20;;;1.92;;
5807;SDS011;2930;42.678;23.312;2023-02-22T15:35:14;1.77;;;1.77;;
5807;SDS011;2930;42.678;23.312;2023-02-22T15:37:43;1.88;;;1.77;;
5807;SDS011;2930;42.678;23.312;2023-02-22T15:40:14;2.08;;;1.98;;
5807;SDS011;2930;42.678;23.312;2023-02-22T15:42:48;2.15;;;2.00;;
5807;SDS011;2930;42.678;23.312;2023-02-22T15:45:18;2.00;;;1.90;;
5807;SDS011;2930;42.678;23.312;2023-02-22T15:47:45;1.92;;;1.83;;
5807;SDS011;2930;42.678;23.312;2023-02-22T15:55:38;2.00;;;1.90;;
5807;SDS011;2930;42.678;23.312;2023-02-22T16:00:36;2.08;;;1.98;;
5807;SDS011;2930;42.678;23.312;2023-02-22T16:03:07;1.88;;;1.88;;
5807;SDS011;2930;42.678;23.312;2023-02-22T16:05:57;3.63;;;2.05;;
5807;SDS011;2930;42.678;23.312;2023-02-22T16:08:32;2.30;;;2.20;;
5807;SDS011;2930;42.678;23.312;2023-02-22T16:11:05;2.63;;;2.28;;
5807;SDS011;2930;42.678;23.312;2023-02-22T16:13:37;2.92;;;2.78;;
5807;SDS011;2930;42.678;23.312;2023-02-22T16:18:48;2.85;;;2.65;;
5807;SDS011;2930;42.678;23.312;2023-02-22T16:21:16;7.07;;;2.58;;
5807;SDS011;2930;42.678;23.312;2023-02-22T16:26:26;3.25;;;2.95;;
5807;SDS011;2930;42.678;23.312;2023-02-22T16:29:04;5.50;;;3.22;;
5807;SDS011;2930;42.678;23.312;2023-02-22T16:31:34;3.70;;;3.35;;
5807;SDS011;2930;42.678;23.312;2023-02-22T16:34:02;3.85;;;3.55;;
5807;SDS011;2930;42.678;23.312;2023-02-22T16:37:03;3.72;;;3.42;;
5807;SDS011;2930;42.678;23.312;2023-02-22T16:39:28;6.22;;;3.90;;
5807;SDS011;2930;42.678;23.312;2023-02-22T16:41:56;4.65;;;4.22;;
5807;SDS011;2930;42.678;23.312;2023-02-22T16:44:24;6.00;;;5.40;;
5807;SDS011;2930;42.678;23.312;2023-02-22T16:46:51;4.97;;;4.55;;
5807;SDS011;2930;42.678;23.312;2023-02-22T16:49:17;4.82;;;4.43;;
5807;SDS011;2930;42.678;23.312;2023-02-22T16:51:43;8.32;;;5.32;;
5807;SDS011;2930;42.678;23.312;2023-02-22T16:57:01;4.68;;;4.22;;
5807;SDS011;2930;42.678;23.312;2023-02-22T16:59:29;4.40;;;4.10;;
5807;SDS011;2930;42.678;23.312;2023-02-22T17:01:57;4.05;;;3.75;;
5807;SDS011;2930;42.678;23.312;2023-02-22T17:04:23;4.13;;;3.67;;
5807;SDS011;2930;42.678;23.312;2023-02-22T17:06:50;3.75;;;3.38;;
5807;SDS011;2930;42.678;23.312;2023-02-22T17:09:17;5.28;;;3.58;;
5807;SDS011;2930;42.678;23.312;2023-02-22T17:11:47;4.43;;;4.00;;
5807;SDS011;2930;42.678;23.312;2023-02-22T17:14:17;7.40;;;4.20;;
5807;SDS011;2930;42.678;23.312;2023-02-22T17:16:50;10.30;;;5.78;;
5807;SDS011;2930;42.678;23.312;2023-02-22T17:19:20;6.15;;;4.65;;
5807;SDS011;2930;42.678;23.312;2023-02-22T17:21:47;6.85;;;4.47;;
5807;SDS011;2930;42.678;23.312;2023-02-22T17:24:16;6.45;;;3.85;;
5807;SDS011;2930;42.678;23.312;2023-02-22T17:26:44;5.03;;;4.20;;
5807;SDS011;2930;42.678;23.312;2023-02-22T17:29:10;4.78;;;4.32;;
5807;SDS011;2930;42.678;23.312;2023-02-22T17:31:37;5.88;;;3.58;;
5807;SDS011;2930;42.678;23.312;2023-02-22T17:34:04;4.03;;;3.63;;
5807;SDS011;2930;42.678;23.312;2023-02-22T17:36:30;3.97;;;3.67;;
5807;SDS011;2930;42.678;23.312;2023-02-22T17:38:57;4.15;;;3.30;;
5807;SDS011;2930;42.678;23.312;2023-02-22T17:41:24;3.75;;;3.03;;
5807;SDS011;2930;42.678;23.312;2023-02-22T17:43:50;4.97;;;3.60;;
5807;SDS011;2930;42.678;23.312;2023-02-22T17:46:18;4.97;;;3.78;;
5807;SDS011;2930;42.678;23.312;2023-02-22T17:48:44;4.13;;;3.42;;
5807;SDS011;2930;42.678;23.312;2023-02-22T17:51:12;4.00;;;3.53;;
5807;SDS011;2930;42.678;23.312;2023-02-22T17:53:38;4.00;;;3.60;;
5807;SDS011;2930;42.678;23.312;2023-02-22T17:56:07;5.93;;;4.38;;
5807;SDS011;2930;42.678;23.312;2023-02-22T17:58:36;4.28;;;3.88;;
5807;SDS011;2930;42.678;23.312;2023-02-22T18:01:02;3.58;;;3.38;;
5807;SDS011;2930;42.678;23.312;2023-02-22T18:03:28;3.80;;;3.42;;
5807;SDS011;2930;42.678;23.312;2023-02-22T18:05:56;3.80;;;3.28;;
5807;SDS011;2930;42.678;23.312;2023-02-22T18:08:24;3.72;;;3.33;;
5807;SDS011;2930;42.678;23.312;2023-02-22T18:10:50;3.42;;;3.15;;
5807;SDS011;2930;42.678;23.312;2023-02-22T18:13:20;4.32;;;2.83;;
5807;SDS011;2930;42.678;23.312;2023-02-22T18:15:47;6.13;;;3.63;;
5807;SDS011;2930;42.678;23.312;2023-02-22T18:18:14;3.42;;;3.15;;
5807;SDS011;2930;42.678;23.312;2023-02-22T18:20:45;6.00;;;3.40;;
5807;SDS011;2930;42.678;23.312;2023-02-22T18:23:16;3.72;;;3.25;;